createdAt,value
2022-09-04T00:04:14.945Z,16.4
2022-09-04T00:09:14.906Z,16.4
2022-09-04T00:14:14.889Z,16.3
2022-09-04T00:19:14.867Z,16.3
2022-09-04T00:24:14.838Z,16.3
2022-09-04T00:29:14.825Z,16.2
2022-09-04T00:34:14.809Z,16.2
2022-09-04T00:39:14.792Z,16.2
2022-09-04T00:44:14.827Z,16.1
2022-09-04T00:49:14.740Z,16.1
2022-09-04T00:54:14.716Z,16.1
2022-09-04T00:59:14.699Z,16.1
2022-09-04T01:04:14.696Z,16.1
2022-09-04T01:09:14.657Z,16.1
2022-09-04T01:14:14.635Z,16
2022-09-04T01:19:14.617Z,16
2022-09-04T01:24:14.640Z,16
2022-09-04T01:29:14.566Z,15.9
2022-09-04T01:34:14.553Z,15.9
2022-09-04T01:39:14.525Z,15.8
2022-09-04T01:44:14.548Z,15.8
2022-09-04T01:49:14.533Z,15.8
2022-09-04T01:54:14.495Z,15.7
2022-09-04T01:59:14.459Z,15.7
2022-09-04T02:04:14.447Z,15.6
2022-09-04T02:09:14.414Z,15.5
2022-09-04T02:14:14.389Z,15.5
2022-09-04T02:19:14.367Z,15.5
2022-09-04T02:24:14.339Z,15.5
2022-09-04T02:29:14.345Z,15.5
2022-09-04T02:34:14.298Z,15.5
2022-09-04T02:39:14.293Z,15.4
2022-09-04T02:44:14.265Z,15.4
2022-09-04T02:49:14.228Z,15.4
2022-09-04T02:54:14.243Z,15.3
2022-09-04T02:59:14.237Z,15.3
2022-09-04T03:04:14.181Z,15.2
2022-09-04T03:09:14.192Z,15.2
2022-09-04T03:14:14.142Z,15.2
2022-09-04T03:19:14.133Z,15.1
2022-09-04T03:24:14.091Z,15.1
2022-09-04T03:29:14.070Z,15.1
2022-09-04T03:34:14.048Z,15.1
2022-09-04T03:39:14.025Z,15
2022-09-04T03:44:14.008Z,15
2022-09-04T03:49:13.986Z,14.9
2022-09-04T03:54:13.986Z,14.9
2022-09-04T03:59:13.999Z,14.8
2022-09-04T04:04:13.931Z,14.8
2022-09-04T04:09:13.941Z,14.7
2022-09-04T04:14:13.955Z,14.6
2022-09-04T04:19:13.868Z,14.6
2022-09-04T04:24:13.837Z,14.5
2022-09-04T04:29:13.845Z,14.5
2022-09-04T04:34:13.799Z,14.5
2022-09-04T04:39:13.812Z,14.5
2022-09-04T04:44:13.760Z,14.5
2022-09-04T04:49:13.752Z,14.5
2022-09-04T04:54:13.715Z,14.5
2022-09-04T04:59:13.692Z,14.5
2022-09-04T05:04:13.672Z,14.5
2022-09-04T05:09:13.649Z,14.5
2022-09-04T05:14:13.647Z,14.6
2022-09-04T05:19:13.610Z,14.6
2022-09-04T05:24:13.604Z,14.7
2022-09-04T05:29:13.573Z,14.7
2022-09-04T05:34:13.552Z,14.7
2022-09-04T05:39:13.543Z,14.8
2022-09-04T05:44:13.512Z,14.9
2022-09-04T05:49:13.494Z,15
2022-09-04T05:54:13.463Z,15.1
2022-09-04T05:59:13.450Z,15.2
2022-09-04T06:04:13.458Z,15.3
2022-09-04T06:09:13.399Z,15.5
2022-09-04T06:14:13.399Z,15.6
2022-09-04T06:19:13.405Z,15.8
2022-09-04T06:24:13.342Z,16
2022-09-04T06:29:13.350Z,16.2
2022-09-04T06:34:13.320Z,16.4
2022-09-04T06:39:13.317Z,16.6
2022-09-04T06:44:13.300Z,16.7
2022-09-04T06:49:13.233Z,16.9
2022-09-04T06:54:13.218Z,17.2
2022-09-04T06:59:13.195Z,17.6
2022-09-04T07:04:13.197Z,17.8
2022-09-04T07:09:13.157Z,18.1
2022-09-04T07:14:13.185Z,18.3
2022-09-04T07:19:13.121Z,18.6
2022-09-04T07:24:13.146Z,18.8
2022-09-04T07:29:13.070Z,19
2022-09-04T07:34:13.060Z,19.2
2022-09-04T07:39:13.022Z,19.5
2022-09-04T07:44:13.012Z,19.8
2022-09-04T07:49:12.982Z,20
2022-09-04T07:54:12.959Z,20.2
2022-09-04T07:59:12.931Z,20.4
2022-09-04T08:04:12.948Z,20.7
2022-09-04T08:09:12.898Z,20.9
2022-09-04T08:14:12.904Z,21.1
2022-09-04T08:19:12.854Z,21.5
2022-09-04T08:24:12.885Z,22
2022-09-04T08:29:12.806Z,22.4
2022-09-04T08:34:12.805Z,22.8
2022-09-04T08:39:12.764Z,23.2
2022-09-04T08:44:12.761Z,23.5
2022-09-04T08:49:12.726Z,23.7
2022-09-04T08:54:12.739Z,24
2022-09-04T08:59:12.682Z,24.7
2022-09-04T09:04:12.665Z,24.8
2022-09-04T09:09:12.637Z,25.1
2022-09-04T09:14:12.627Z,25.2
2022-09-04T09:19:12.606Z,25.4
2022-09-04T09:24:12.580Z,25.6
2022-09-04T09:29:12.547Z,25.8
2022-09-04T09:34:12.546Z,26
2022-09-04T09:39:12.507Z,26.2
2022-09-04T09:44:12.489Z,26.5
2022-09-04T09:49:12.471Z,26.5
2022-09-04T09:54:12.493Z,26.6
2022-09-04T09:59:12.425Z,26.7
2022-09-04T10:04:12.406Z,26.7
2022-09-04T10:09:12.383Z,26.9
2022-09-04T10:14:12.412Z,26.9
2022-09-04T10:19:12.347Z,27.2
2022-09-04T10:24:12.341Z,27.4
2022-09-04T10:29:12.332Z,27.5
2022-09-04T10:34:12.279Z,27.4
2022-09-04T10:39:12.251Z,27.4
2022-09-04T10:44:12.241Z,27.6
2022-09-04T10:49:12.209Z,27.6
2022-09-04T10:54:12.199Z,27.5
2022-09-04T10:59:12.158Z,27.7
2022-09-04T11:04:12.188Z,27.9
2022-09-04T11:09:12.137Z,27.9
2022-09-04T11:14:12.123Z,28
2022-09-04T11:19:12.139Z,27.9
2022-09-04T11:24:12.111Z,27.8
2022-09-04T11:29:12.028Z,27.9
2022-09-04T11:34:12.022Z,28.1
2022-09-04T11:39:12.007Z,28.3
2022-09-04T11:44:11.991Z,28.3
2022-09-04T11:49:11.967Z,28.4
2022-09-04T11:54:11.969Z,28.5
2022-09-04T11:59:11.912Z,28.6
2022-09-04T12:04:11.928Z,28.5
2022-09-04T12:09:11.879Z,28.4
2022-09-04T12:14:11.863Z,28.5
2022-09-04T12:19:11.841Z,28.3
2022-09-04T12:24:11.850Z,28
2022-09-04T12:29:11.809Z,27.4
2022-09-04T12:34:11.778Z,27.9
2022-09-04T12:39:11.761Z,28.1
2022-09-04T12:44:11.733Z,28.3
2022-09-04T12:49:11.761Z,28
2022-09-04T12:54:11.724Z,28
2022-09-04T12:59:11.801Z,28.2
2022-09-04T13:04:11.637Z,28.1
2022-09-04T13:09:11.618Z,27.9
2022-09-04T13:14:11.617Z,27.9
2022-09-04T13:19:11.613Z,28.1
2022-09-04T13:24:11.565Z,27.8
2022-09-04T13:29:11.572Z,27.5
2022-09-04T13:34:11.531Z,27.3
2022-09-04T13:39:11.528Z,26.9
2022-09-04T13:44:11.496Z,26.8
2022-09-04T13:49:11.480Z,26.6
2022-09-04T13:54:11.459Z,26.6
2022-09-04T13:59:11.422Z,26.6
2022-09-04T14:04:11.403Z,26.6
2022-09-04T14:09:11.358Z,26.6
2022-09-04T14:14:11.342Z,26.6
2022-09-04T14:19:11.316Z,26.5
2022-09-04T14:24:11.404Z,26.6
2022-09-04T14:29:11.346Z,26.4
2022-09-04T14:34:11.248Z,26.5
2022-09-04T14:39:11.231Z,26.3
2022-09-04T14:44:11.216Z,26.3
2022-09-04T14:49:11.194Z,26.2
2022-09-04T14:54:11.169Z,26.3
2022-09-04T14:59:11.145Z,26.2
2022-09-04T15:04:11.130Z,26.2
2022-09-04T15:09:11.106Z,26.1
2022-09-04T15:14:11.094Z,26
2022-09-04T15:19:11.058Z,26
2022-09-04T15:24:11.049Z,25.9
2022-09-04T15:29:11.014Z,25.8
2022-09-04T15:34:11.000Z,25.8
2022-09-04T15:39:10.977Z,25.7
2022-09-04T15:44:10.976Z,25.6
2022-09-04T15:49:10.930Z,25.5
2022-09-04T15:54:10.908Z,25.5
2022-09-04T15:59:10.890Z,25.4
2022-09-04T16:04:10.869Z,25.4
2022-09-04T16:09:10.852Z,25.3
2022-09-04T16:14:10.834Z,25.3
2022-09-04T16:19:10.799Z,25.1
2022-09-04T16:24:10.782Z,25
2022-09-04T16:29:10.758Z,25
2022-09-04T16:34:10.741Z,25
2022-09-04T16:39:10.719Z,25
2022-09-04T16:44:10.721Z,25
2022-09-04T16:49:10.672Z,24.9
2022-09-04T16:54:10.656Z,24.7
2022-09-04T16:59:10.634Z,24.6
2022-09-04T17:04:10.613Z,24.5
2022-09-04T17:09:10.590Z,24.5
2022-09-04T17:14:10.568Z,24.4
2022-09-04T17:19:10.583Z,24.3
2022-09-04T17:24:10.520Z,24.2
2022-09-04T17:29:10.507Z,24.1
2022-09-04T17:34:10.487Z,24.1
2022-09-04T17:39:10.457Z,24
2022-09-04T17:44:10.434Z,23.9
2022-09-04T17:49:10.422Z,23.8
2022-09-04T17:54:10.399Z,23.7
2022-09-04T18:04:10.357Z,23.4
2022-09-04T18:09:10.351Z,23.4
2022-09-04T18:14:10.317Z,23.3
2022-09-04T18:19:10.304Z,23.2
2022-09-04T18:24:10.275Z,23.1
2022-09-04T18:29:10.281Z,22.9
2022-09-04T18:34:10.234Z,23
2022-09-04T18:39:10.244Z,22.8
2022-09-04T18:44:10.186Z,22.7
2022-09-04T18:54:10.146Z,22.4
2022-09-04T18:59:10.152Z,22.3
2022-09-04T19:04:10.116Z,22.1
2022-09-04T19:09:10.141Z,21.9
2022-09-04T19:14:10.060Z,21.7
2022-09-04T19:19:10.074Z,21.6
2022-09-04T19:24:10.015Z,21.4
2022-09-04T19:29:10.055Z,21.3
2022-09-04T19:34:10.003Z,21.1
2022-09-04T19:44:09.925Z,20.9
2022-09-04T19:49:09.965Z,20.8
2022-09-04T19:54:09.880Z,20.6
2022-09-04T19:59:09.911Z,20.5
2022-09-04T20:04:09.844Z,20.4
2022-09-04T20:09:09.867Z,20.3
2022-09-04T20:14:09.806Z,20.3
2022-09-04T20:19:09.828Z,20.2
2022-09-04T20:24:09.754Z,20.1
2022-09-04T20:29:09.732Z,20.1
2022-09-04T20:34:09.709Z,19.9
2022-09-04T20:39:09.748Z,19.9
2022-09-04T20:44:09.680Z,19.9
2022-09-04T20:49:09.667Z,19.8
2022-09-04T20:54:09.632Z,19.8
2022-09-04T20:59:09.602Z,19.7
2022-09-04T21:04:09.597Z,19.7
2022-09-04T21:09:09.566Z,19.6
2022-09-04T21:14:09.545Z,19.6
2022-09-04T21:19:09.521Z,19.5
2022-09-04T21:24:09.501Z,19.3
2022-09-04T21:29:09.495Z,19.2
2022-09-04T21:34:09.471Z,19.1
2022-09-04T21:39:09.435Z,19
2022-09-04T21:44:09.416Z,18.9
2022-09-04T21:49:09.399Z,19
2022-09-04T21:54:09.367Z,19
2022-09-04T21:59:09.355Z,18.9
2022-09-04T22:04:09.325Z,18.9
2022-09-04T22:09:09.310Z,18.8
2022-09-04T22:14:09.300Z,18.9
2022-09-04T22:19:09.285Z,18.8
2022-09-04T22:24:09.238Z,18.6
2022-09-04T22:29:09.226Z,18.6
2022-09-04T22:34:09.201Z,18.6
2022-09-04T22:39:09.174Z,18.6
2022-09-04T22:44:09.154Z,18.5
2022-09-04T22:49:09.136Z,18.4
2022-09-04T22:54:09.120Z,18.3
2022-09-04T22:59:09.097Z,18.2
2022-09-04T23:04:09.088Z,18.2
2022-09-04T23:09:09.051Z,18.2
2022-09-04T23:14:09.039Z,18.2
2022-09-04T23:19:09.027Z,18.1
2022-09-04T23:24:08.995Z,17.9
2022-09-04T23:29:08.970Z,17.8
2022-09-04T23:34:08.960Z,17.7
2022-09-04T23:39:08.923Z,17.9
2022-09-04T23:44:08.928Z,17.9
2022-09-04T23:49:08.880Z,17.8
2022-09-04T23:54:08.865Z,17.9
2022-09-04T23:59:08.845Z,17.9
